Bruneau Valley, Idaho
Current Conditions -  °F | °C
As of 8:18 AM on Saturday 20 Dec 2014 (Local Time) from KMUO Reporting Station
Light Rain Light Rain  
Wind Chill: 30°   Ceiling: 3500
Heat Index: 37°   Visibility: 9mi
Dew Point: 36°   Wind: 12mph
Humidity: 93%   Direction: 100°E
Pressure: 30.04"   Gusts: NA
Location:  42.4532°N, 115.47°W
Report Text: KMUO 201518Z AUTO 10010KT 9SM -RA FEW016 SCT022 OVC035 03/02 A3004 RMK AO2 CIG 019 RWY30
Loading
Personal Weather Stations






























Interactive Weather Map New forecast layout! Learn more

10-Day Weather Forecast

Advertisements
Track Severe Weather on mobile